sensor_id;sensor_type;location;lat;lon;timestamp;P1;durP1;ratioP1;P2;durP2;ratioP2
8895;SDS011;4484;48.928;10.066;2022-12-13T00:01:47;34.67;;;18.80;;
8895;SDS011;4484;48.928;10.066;2022-12-13T00:04:16;38.90;;;20.17;;
8895;SDS011;4484;48.928;10.066;2022-12-13T00:06:45;35.47;;;19.00;;
8895;SDS011;4484;48.928;10.066;2022-12-13T00:09:13;37.23;;;18.50;;
8895;SDS011;4484;48.928;10.066;2022-12-13T00:11:41;39.37;;;19.03;;
8895;SDS011;4484;48.928;10.066;2022-12-13T00:14:09;38.30;;;20.50;;
8895;SDS011;4484;48.928;10.066;2022-12-13T00:16:39;34.40;;;18.33;;
8895;SDS011;4484;48.928;10.066;2022-12-13T00:19:06;36.47;;;18.50;;
8895;SDS011;4484;48.928;10.066;2022-12-13T00:21:33;35.20;;;19.73;;
8895;SDS011;4484;48.928;10.066;2022-12-13T00:24:01;35.28;;;20.08;;
8895;SDS011;4484;48.928;10.066;2022-12-13T00:26:31;33.97;;;18.20;;
8895;SDS011;4484;48.928;10.066;2022-12-13T00:28:59;34.70;;;18.80;;
8895;SDS011;4484;48.928;10.066;2022-12-13T00:31:27;37.05;;;20.48;;
8895;SDS011;4484;48.928;10.066;2022-12-13T00:34:17;34.90;;;18.23;;
8895;SDS011;4484;48.928;10.066;2022-12-13T00:36:44;38.17;;;20.23;;
8895;SDS011;4484;48.928;10.066;2022-12-13T00:39:11;37.70;;;18.67;;
8895;SDS011;4484;48.928;10.066;2022-12-13T00:41:39;46.28;;;21.48;;
8895;SDS011;4484;48.928;10.066;2022-12-13T00:44:08;37.53;;;19.90;;
8895;SDS011;4484;48.928;10.066;2022-12-13T00:46:39;43.07;;;21.60;;
8895;SDS011;4484;48.928;10.066;2022-12-13T00:49:06;44.85;;;21.90;;
8895;SDS011;4484;48.928;10.066;2022-12-13T00:51:35;43.28;;;21.13;;
8895;SDS011;4484;48.928;10.066;2022-12-13T00:54:02;41.30;;;20.97;;
8895;SDS011;4484;48.928;10.066;2022-12-13T00:56:30;47.55;;;22.92;;
8895;SDS011;4484;48.928;10.066;2022-12-13T00:58:58;38.30;;;20.23;;
8895;SDS011;4484;48.928;10.066;2022-12-13T01:01:26;39.40;;;20.08;;
8895;SDS011;4484;48.928;10.066;2022-12-13T01:03:58;40.97;;;19.80;;
8895;SDS011;4484;48.928;10.066;2022-12-13T01:06:27;39.00;;;18.83;;
8895;SDS011;4484;48.928;10.066;2022-12-13T01:08:56;38.80;;;19.63;;
8895;SDS011;4484;48.928;10.066;2022-12-13T01:11:23;42.65;;;20.52;;
8895;SDS011;4484;48.928;10.066;2022-12-13T01:13:51;40.07;;;19.13;;
8895;SDS011;4484;48.928;10.066;2022-12-13T01:16:18;36.17;;;18.40;;
8895;SDS011;4484;48.928;10.066;2022-12-13T01:18:45;33.63;;;19.02;;
8895;SDS011;4484;48.928;10.066;2022-12-13T01:21:13;39.65;;;19.88;;
8895;SDS011;4484;48.928;10.066;2022-12-13T01:23:42;39.77;;;18.87;;
8895;SDS011;4484;48.928;10.066;2022-12-13T01:26:11;37.75;;;20.05;;
8895;SDS011;4484;48.928;10.066;2022-12-13T01:28:41;44.17;;;22.13;;
8895;SDS011;4484;48.928;10.066;2022-12-13T01:31:12;39.53;;;20.17;;
8895;SDS011;4484;48.928;10.066;2022-12-13T01:33:41;44.17;;;21.13;;
8895;SDS011;4484;48.928;10.066;2022-12-13T01:36:10;44.17;;;21.97;;
8895;SDS011;4484;48.928;10.066;2022-12-13T01:38:39;34.77;;;19.20;;
8895;SDS011;4484;48.928;10.066;2022-12-13T01:41:06;36.67;;;19.03;;
8895;SDS011;4484;48.928;10.066;2022-12-13T01:46:13;43.00;;;18.98;;
8895;SDS011;4484;48.928;10.066;2022-12-13T01:48:43;33.63;;;18.37;;
8895;SDS011;4484;48.928;10.066;2022-12-13T01:51:14;40.67;;;20.17;;
8895;SDS011;4484;48.928;10.066;2022-12-13T01:53:44;44.97;;;21.23;;
8895;SDS011;4484;48.928;10.066;2022-12-13T01:56:16;53.25;;;25.63;;
8895;SDS011;4484;48.928;10.066;2022-12-13T01:58:47;89.03;;;38.10;;
8895;SDS011;4484;48.928;10.066;2022-12-13T02:01:21;75.20;;;35.33;;
8895;SDS011;4484;48.928;10.066;2022-12-13T02:03:49;58.27;;;27.83;;
8895;SDS011;4484;48.928;10.066;2022-12-13T02:06:18;44.67;;;21.83;;
8895;SDS011;4484;48.928;10.066;2022-12-13T02:08:59;39.73;;;20.67;;
8895;SDS011;4484;48.928;10.066;2022-12-13T02:11:26;39.47;;;19.53;;
8895;SDS011;4484;48.928;10.066;2022-12-13T02:13:53;38.50;;;20.93;;
8895;SDS011;4484;48.928;10.066;2022-12-13T02:30:36;34.53;;;17.50;;
8895;SDS011;4484;48.928;10.066;2022-12-13T02:36:07;38.95;;;18.77;;
8895;SDS011;4484;48.928;10.066;2022-12-13T02:41:28;38.15;;;18.60;;
8895;SDS011;4484;48.928;10.066;2022-12-13T02:44:18;37.30;;;20.10;;
8895;SDS011;4484;48.928;10.066;2022-12-13T02:46:50;36.60;;;19.13;;
8895;SDS011;4484;48.928;10.066;2022-12-13T02:49:19;39.13;;;19.48;;
8895;SDS011;4484;48.928;10.066;2022-12-13T02:51:49;33.72;;;19.25;;
8895;SDS011;4484;48.928;10.066;2022-12-13T02:54:17;39.50;;;18.85;;
8895;SDS011;4484;48.928;10.066;2022-12-13T02:56:56;36.95;;;18.88;;
8895;SDS011;4484;48.928;10.066;2022-12-13T02:59:33;35.85;;;17.67;;
8895;SDS011;4484;48.928;10.066;2022-12-13T03:05:09;36.42;;;18.90;;
8895;SDS011;4484;48.928;10.066;2022-12-13T03:08:16;38.30;;;19.30;;
8895;SDS011;4484;48.928;10.066;2022-12-13T03:13:30;38.00;;;17.88;;
8895;SDS011;4484;48.928;10.066;2022-12-13T03:18:49;37.63;;;18.37;;
8895;SDS011;4484;48.928;10.066;2022-12-13T03:21:22;45.10;;;20.33;;
8895;SDS011;4484;48.928;10.066;2022-12-13T03:23:49;37.78;;;19.23;;
8895;SDS011;4484;48.928;10.066;2022-12-13T03:26:17;36.00;;;19.17;;
8895;SDS011;4484;48.928;10.066;2022-12-13T03:28:48;36.08;;;18.98;;
8895;SDS011;4484;48.928;10.066;2022-12-13T03:31:15;36.72;;;18.13;;
8895;SDS011;4484;48.928;10.066;2022-12-13T03:33:42;32.53;;;16.65;;
8895;SDS011;4484;48.928;10.066;2022-12-13T03:36:09;33.03;;;16.55;;
8895;SDS011;4484;48.928;10.066;2022-12-13T03:38:37;33.67;;;18.13;;
8895;SDS011;4484;48.928;10.066;2022-12-13T03:41:10;36.67;;;18.50;;
8895;SDS011;4484;48.928;10.066;2022-12-13T03:43:40;32.60;;;17.70;;
8895;SDS011;4484;48.928;10.066;2022-12-13T03:46:07;32.67;;;18.38;;
8895;SDS011;4484;48.928;10.066;2022-12-13T03:48:34;33.73;;;17.00;;
8895;SDS011;4484;48.928;10.066;2022-12-13T03:51:01;34.53;;;17.80;;
8895;SDS011;4484;48.928;10.066;2022-12-13T03:53:29;36.93;;;18.43;;
8895;SDS011;4484;48.928;10.066;2022-12-13T03:56:03;35.60;;;18.93;;
8895;SDS011;4484;48.928;10.066;2022-12-13T03:58:31;30.33;;;16.70;;
8895;SDS011;4484;48.928;10.066;2022-12-13T04:01:02;38.50;;;18.97;;
8895;SDS011;4484;48.928;10.066;2022-12-13T04:03:34;37.03;;;19.00;;
8895;SDS011;4484;48.928;10.066;2022-12-13T04:06:02;29.60;;;17.35;;
8895;SDS011;4484;48.928;10.066;2022-12-13T04:08:30;33.45;;;18.83;;
8895;SDS011;4484;48.928;10.066;2022-12-13T04:10:57;33.05;;;17.65;;
8895;SDS011;4484;48.928;10.066;2022-12-13T04:13:24;26.92;;;14.70;;
8895;SDS011;4484;48.928;10.066;2022-12-13T04:16:00;37.37;;;19.60;;
8895;SDS011;4484;48.928;10.066;2022-12-13T04:18:28;36.33;;;19.20;;
8895;SDS011;4484;48.928;10.066;2022-12-13T04:20:55;34.72;;;17.67;;
8895;SDS011;4484;48.928;10.066;2022-12-13T04:23:23;39.13;;;19.67;;
8895;SDS011;4484;48.928;10.066;2022-12-13T04:25:49;39.70;;;19.33;;
8895;SDS011;4484;48.928;10.066;2022-12-13T04:28:16;40.70;;;20.17;;
8895;SDS011;4484;48.928;10.066;2022-12-13T04:30:48;39.05;;;18.60;;
8895;SDS011;4484;48.928;10.066;2022-12-13T04:33:19;38.80;;;18.48;;
8895;SDS011;4484;48.928;10.066;2022-12-13T04:35:47;33.83;;;17.13;;
8895;SDS011;4484;48.928;10.066;2022-12-13T04:38:15;35.60;;;18.10;;
8895;SDS011;4484;48.928;10.066;2022-12-13T04:40:42;31.90;;;17.60;;
8895;SDS011;4484;48.928;10.066;2022-12-13T04:43:09;34.13;;;17.40;;
8895;SDS011;4484;48.928;10.066;2022-12-13T04:45:37;32.70;;;16.83;;
8895;SDS011;4484;48.928;10.066;2022-12-13T04:48:05;36.47;;;18.38;;
8895;SDS011;4484;48.928;10.066;2022-12-13T04:50:32;34.72;;;18.42;;
8895;SDS011;4484;48.928;10.066;2022-12-13T04:52:59;35.25;;;19.05;;
8895;SDS011;4484;48.928;10.066;2022-12-13T04:55:26;35.72;;;18.65;;
8895;SDS011;4484;48.928;10.066;2022-12-13T04:57:53;37.08;;;19.40;;
8895;SDS011;4484;48.928;10.066;2022-12-13T05:00:21;31.58;;;17.80;;
8895;SDS011;4484;48.928;10.066;2022-12-13T05:02:48;40.53;;;19.80;;
8895;SDS011;4484;48.928;10.066;2022-12-13T05:05:15;37.95;;;19.48;;
8895;SDS011;4484;48.928;10.066;2022-12-13T05:07:43;34.80;;;19.10;;
8895;SDS011;4484;48.928;10.066;2022-12-13T05:10:10;36.72;;;20.40;;
8895;SDS011;4484;48.928;10.066;2022-12-13T05:12:58;37.67;;;19.97;;
8895;SDS011;4484;48.928;10.066;2022-12-13T05:15:25;43.13;;;20.07;;
8895;SDS011;4484;48.928;10.066;2022-12-13T05:17:53;36.20;;;19.37;;
8895;SDS011;4484;48.928;10.066;2022-12-13T05:20:20;38.73;;;18.90;;
8895;SDS011;4484;48.928;10.066;2022-12-13T05:22:47;39.73;;;18.83;;
8895;SDS011;4484;48.928;10.066;2022-12-13T05:25:13;35.73;;;18.63;;
8895;SDS011;4484;48.928;10.066;2022-12-13T05:27:40;36.60;;;18.60;;
8895;SDS011;4484;48.928;10.066;2022-12-13T05:30:08;36.28;;;17.98;;
8895;SDS011;4484;48.928;10.066;2022-12-13T05:32:36;35.05;;;17.73;;
8895;SDS011;4484;48.928;10.066;2022-12-13T05:35:19;33.92;;;17.63;;
8895;SDS011;4484;48.928;10.066;2022-12-13T05:37:49;29.95;;;16.58;;
8895;SDS011;4484;48.928;10.066;2022-12-13T05:40:24;34.88;;;17.30;;
8895;SDS011;4484;48.928;10.066;2022-12-13T05:42:52;35.20;;;17.25;;
8895;SDS011;4484;48.928;10.066;2022-12-13T05:45:27;31.90;;;16.90;;
8895;SDS011;4484;48.928;10.066;2022-12-13T05:47:55;34.87;;;17.43;;
8895;SDS011;4484;48.928;10.066;2022-12-13T05:50:22;28.83;;;15.60;;
8895;SDS011;4484;48.928;10.066;2022-12-13T05:52:52;31.87;;;16.37;;
8895;SDS011;4484;48.928;10.066;2022-12-13T05:55:19;35.43;;;16.80;;
8895;SDS011;4484;48.928;10.066;2022-12-13T05:57:47;31.25;;;16.65;;
8895;SDS011;4484;48.928;10.066;2022-12-13T06:00:16;29.42;;;16.52;;
8895;SDS011;4484;48.928;10.066;2022-12-13T06:02:55;29.48;;;16.95;;
8895;SDS011;4484;48.928;10.066;2022-12-13T06:05:27;31.33;;;16.27;;
8895;SDS011;4484;48.928;10.066;2022-12-13T06:07:55;27.50;;;15.43;;
8895;SDS011;4484;48.928;10.066;2022-12-13T06:10:23;30.55;;;16.70;;
8895;SDS011;4484;48.928;10.066;2022-12-13T06:13:01;31.23;;;16.85;;
8895;SDS011;4484;48.928;10.066;2022-12-13T06:15:47;30.48;;;15.05;;
8895;SDS011;4484;48.928;10.066;2022-12-13T06:18:14;32.65;;;17.52;;
8895;SDS011;4484;48.928;10.066;2022-12-13T06:20:41;33.27;;;16.47;;
8895;SDS011;4484;48.928;10.066;2022-12-13T06:23:08;34.93;;;17.67;;
8895;SDS011;4484;48.928;10.066;2022-12-13T06:25:35;37.43;;;19.37;;
8895;SDS011;4484;48.928;10.066;2022-12-13T06:28:02;36.05;;;18.40;;
8895;SDS011;4484;48.928;10.066;2022-12-13T06:30:29;35.00;;;17.40;;
8895;SDS011;4484;48.928;10.066;2022-12-13T06:32:57;35.88;;;16.58;;
8895;SDS011;4484;48.928;10.066;2022-12-13T06:35:24;40.65;;;17.73;;
8895;SDS011;4484;48.928;10.066;2022-12-13T06:37:58;35.10;;;16.42;;
8895;SDS011;4484;48.928;10.066;2022-12-13T06:40:27;35.17;;;16.67;;
8895;SDS011;4484;48.928;10.066;2022-12-13T06:42:56;35.65;;;16.92;;
8895;SDS011;4484;48.928;10.066;2022-12-13T06:45:23;33.60;;;16.00;;
8895;SDS011;4484;48.928;10.066;2022-12-13T06:47:50;33.92;;;15.68;;
8895;SDS011;4484;48.928;10.066;2022-12-13T06:50:17;36.85;;;16.58;;
8895;SDS011;4484;48.928;10.066;2022-12-13T06:52:44;36.70;;;17.30;;
8895;SDS011;4484;48.928;10.066;2022-12-13T06:55:12;34.13;;;17.88;;
8895;SDS011;4484;48.928;10.066;2022-12-13T06:57:39;35.05;;;17.42;;
8895;SDS011;4484;48.928;10.066;2022-12-13T07:00:07;37.70;;;17.73;;
8895;SDS011;4484;48.928;10.066;2022-12-13T07:02:35;41.42;;;19.90;;
8895;SDS011;4484;48.928;10.066;2022-12-13T07:05:04;38.45;;;17.88;;
8895;SDS011;4484;48.928;10.066;2022-12-13T07:07:31;43.00;;;18.80;;
8895;SDS011;4484;48.928;10.066;2022-12-13T07:09:58;42.95;;;18.95;;
8895;SDS011;4484;48.928;10.066;2022-12-13T07:12:25;40.65;;;17.73;;
8895;SDS011;4484;48.928;10.066;2022-12-13T07:14:52;39.70;;;18.23;;
8895;SDS011;4484;48.928;10.066;2022-12-13T07:17:20;41.50;;;19.13;;
8895;SDS011;4484;48.928;10.066;2022-12-13T07:19:58;44.00;;;18.92;;
8895;SDS011;4484;48.928;10.066;2022-12-13T07:22:26;35.65;;;19.08;;
8895;SDS011;4484;48.928;10.066;2022-12-13T07:24:54;40.25;;;19.08;;
8895;SDS011;4484;48.928;10.066;2022-12-13T07:27:21;40.47;;;19.23;;
8895;SDS011;4484;48.928;10.066;2022-12-13T07:29:49;41.88;;;19.30;;
8895;SDS011;4484;48.928;10.066;2022-12-13T07:32:15;37.70;;;20.27;;
8895;SDS011;4484;48.928;10.066;2022-12-13T07:34:42;42.53;;;20.58;;
8895;SDS011;4484;48.928;10.066;2022-12-13T07:37:10;43.85;;;20.73;;
8895;SDS011;4484;48.928;10.066;2022-12-13T07:39:56;41.40;;;19.33;;
8895;SDS011;4484;48.928;10.066;2022-12-13T07:42:29;40.00;;;19.17;;
8895;SDS011;4484;48.928;10.066;2022-12-13T07:44:56;39.75;;;17.90;;
8895;SDS011;4484;48.928;10.066;2022-12-13T07:47:27;39.00;;;19.30;;
8895;SDS011;4484;48.928;10.066;2022-12-13T07:49:55;40.03;;;19.23;;
8895;SDS011;4484;48.928;10.066;2022-12-13T07:52:23;43.23;;;22.30;;
8895;SDS011;4484;48.928;10.066;2022-12-13T07:54:51;44.67;;;20.98;;
8895;SDS011;4484;48.928;10.066;2022-12-13T07:57:18;36.83;;;19.48;;
8895;SDS011;4484;48.928;10.066;2022-12-13T07:59:45;40.75;;;18.80;;
8895;SDS011;4484;48.928;10.066;2022-12-13T08:02:12;42.40;;;19.20;;
8895;SDS011;4484;48.928;10.066;2022-12-13T08:04:41;39.80;;;19.25;;
8895;SDS011;4484;48.928;10.066;2022-12-13T08:07:09;42.40;;;20.17;;
8895;SDS011;4484;48.928;10.066;2022-12-13T08:09:36;39.47;;;19.60;;
8895;SDS011;4484;48.928;10.066;2022-12-13T08:12:03;37.17;;;18.30;;
8895;SDS011;4484;48.928;10.066;2022-12-13T08:14:30;37.77;;;19.83;;
8895;SDS011;4484;48.928;10.066;2022-12-13T08:16:57;39.03;;;18.70;;
8895;SDS011;4484;48.928;10.066;2022-12-13T08:19:25;40.77;;;19.70;;
8895;SDS011;4484;48.928;10.066;2022-12-13T08:21:51;39.77;;;19.30;;
8895;SDS011;4484;48.928;10.066;2022-12-13T08:24:22;40.30;;;18.70;;
8895;SDS011;4484;48.928;10.066;2022-12-13T08:26:52;35.77;;;17.93;;
8895;SDS011;4484;48.928;10.066;2022-12-13T08:29:19;36.37;;;17.47;;
8895;SDS011;4484;48.928;10.066;2022-12-13T08:32:03;35.27;;;16.73;;
8895;SDS011;4484;48.928;10.066;2022-12-13T08:34:31;35.47;;;18.17;;
8895;SDS011;4484;48.928;10.066;2022-12-13T08:36:58;33.53;;;17.63;;
8895;SDS011;4484;48.928;10.066;2022-12-13T08:39:28;36.67;;;18.43;;
8895;SDS011;4484;48.928;10.066;2022-12-13T08:42:06;35.33;;;17.40;;
8895;SDS011;4484;48.928;10.066;2022-12-13T08:44:44;33.97;;;16.63;;
8895;SDS011;4484;48.928;10.066;2022-12-13T08:47:11;35.67;;;17.57;;
8895;SDS011;4484;48.928;10.066;2022-12-13T08:49:50;32.23;;;15.83;;
8895;SDS011;4484;48.928;10.066;2022-12-13T08:52:28;28.50;;;16.23;;
8895;SDS011;4484;48.928;10.066;2022-12-13T08:54:57;33.27;;;18.13;;
8895;SDS011;4484;48.928;10.066;2022-12-13T08:57:24;29.27;;;15.80;;
8895;SDS011;4484;48.928;10.066;2022-12-13T08:59:50;32.00;;;16.47;;
8895;SDS011;4484;48.928;10.066;2022-12-13T09:02:19;32.77;;;17.23;;
8895;SDS011;4484;48.928;10.066;2022-12-13T09:04:46;35.37;;;16.37;;
8895;SDS011;4484;48.928;10.066;2022-12-13T09:07:14;37.60;;;18.10;;
8895;SDS011;4484;48.928;10.066;2022-12-13T09:09:41;28.47;;;16.50;;
8895;SDS011;4484;48.928;10.066;2022-12-13T09:12:08;38.53;;;18.40;;
8895;SDS011;4484;48.928;10.066;2022-12-13T09:14:55;31.47;;;15.27;;
8895;SDS011;4484;48.928;10.066;2022-12-13T09:17:28;30.83;;;16.53;;
8895;SDS011;4484;48.928;10.066;2022-12-13T09:20:03;29.80;;;15.47;;
8895;SDS011;4484;48.928;10.066;2022-12-13T09:22:52;26.80;;;14.37;;
8895;SDS011;4484;48.928;10.066;2022-12-13T09:25:27;30.73;;;16.20;;
8895;SDS011;4484;48.928;10.066;2022-12-13T09:28:06;29.73;;;16.07;;
8895;SDS011;4484;48.928;10.066;2022-12-13T09:30:35;27.93;;;15.07;;
8895;SDS011;4484;48.928;10.066;2022-12-13T09:33:03;25.73;;;14.67;;
8895;SDS011;4484;48.928;10.066;2022-12-13T09:35:51;23.67;;;14.20;;
8895;SDS011;4484;48.928;10.066;2022-12-13T09:38:18;24.67;;;13.93;;
8895;SDS011;4484;48.928;10.066;2022-12-13T09:40:46;23.20;;;13.27;;
8895;SDS011;4484;48.928;10.066;2022-12-13T09:43:26;26.13;;;15.17;;
8895;SDS011;4484;48.928;10.066;2022-12-13T09:46:17;26.33;;;13.17;;
8895;SDS011;4484;48.928;10.066;2022-12-13T09:49:13;22.10;;;12.07;;
8895;SDS011;4484;48.928;10.066;2022-12-13T09:52:02;20.90;;;11.10;;
8895;SDS011;4484;48.928;10.066;2022-12-13T09:54:37;19.23;;;11.23;;
8895;SDS011;4484;48.928;10.066;2022-12-13T09:57:15;15.37;;;9.83;;
8895;SDS011;4484;48.928;10.066;2022-12-13T10:00:00;17.07;;;9.83;;
8895;SDS011;4484;48.928;10.066;2022-12-13T10:02:41;19.40;;;10.27;;
8895;SDS011;4484;48.928;10.066;2022-12-13T10:08:11;18.60;;;9.37;;
8895;SDS011;4484;48.928;10.066;2022-12-13T10:10:39;14.57;;;9.10;;
8895;SDS011;4484;48.928;10.066;2022-12-13T10:13:19;17.00;;;9.90;;
8895;SDS011;4484;48.928;10.066;2022-12-13T10:15:55;17.37;;;9.07;;
8895;SDS011;4484;48.928;10.066;2022-12-13T10:18:37;14.03;;;8.40;;
8895;SDS011;4484;48.928;10.066;2022-12-13T10:21:10;16.10;;;8.50;;
8895;SDS011;4484;48.928;10.066;2022-12-13T10:23:41;14.73;;;9.57;;
8895;SDS011;4484;48.928;10.066;2022-12-13T10:26:28;12.83;;;8.27;;
8895;SDS011;4484;48.928;10.066;2022-12-13T10:29:03;14.97;;;9.07;;
8895;SDS011;4484;48.928;10.066;2022-12-13T10:31:43;15.40;;;8.60;;
8895;SDS011;4484;48.928;10.066;2022-12-13T10:34:26;15.33;;;8.07;;
8895;SDS011;4484;48.928;10.066;2022-12-13T10:36:55;13.50;;;8.53;;
8895;SDS011;4484;48.928;10.066;2022-12-13T10:39:41;14.17;;;8.07;;
8895;SDS011;4484;48.928;10.066;2022-12-13T10:42:13;13.10;;;7.60;;
8895;SDS011;4484;48.928;10.066;2022-12-13T10:45:07;14.53;;;8.43;;
8895;SDS011;4484;48.928;10.066;2022-12-13T10:47:42;14.63;;;8.93;;
8895;SDS011;4484;48.928;10.066;2022-12-13T10:53:13;15.20;;;8.37;;
8895;SDS011;4484;48.928;10.066;2022-12-13T10:55:48;15.50;;;9.13;;
8895;SDS011;4484;48.928;10.066;2022-12-13T10:58:21;12.23;;;8.20;;
8895;SDS011;4484;48.928;10.066;2022-12-13T11:00:48;12.27;;;8.23;;
8895;SDS011;4484;48.928;10.066;2022-12-13T11:03:29;14.53;;;7.80;;
8895;SDS011;4484;48.928;10.066;2022-12-13T11:06:14;13.30;;;8.30;;
8895;SDS011;4484;48.928;10.066;2022-12-13T11:08:43;14.77;;;7.57;;
8895;SDS011;4484;48.928;10.066;2022-12-13T11:11:10;13.77;;;8.47;;
8895;SDS011;4484;48.928;10.066;2022-12-13T11:13:46;12.63;;;8.43;;
8895;SDS011;4484;48.928;10.066;2022-12-13T11:18:49;13.20;;;8.03;;
8895;SDS011;4484;48.928;10.066;2022-12-13T11:21:22;13.23;;;8.23;;
8895;SDS011;4484;48.928;10.066;2022-12-13T11:23:51;20.27;;;9.80;;
8895;SDS011;4484;48.928;10.066;2022-12-13T11:26:27;14.80;;;8.23;;
8895;SDS011;4484;48.928;10.066;2022-12-13T11:29:20;12.20;;;8.10;;
8895;SDS011;4484;48.928;10.066;2022-12-13T11:34:52;12.93;;;7.83;;
8895;SDS011;4484;48.928;10.066;2022-12-13T11:37:56;15.63;;;8.37;;
8895;SDS011;4484;48.928;10.066;2022-12-13T11:40:55;17.83;;;8.80;;
8895;SDS011;4484;48.928;10.066;2022-12-13T11:46:13;14.93;;;8.40;;
8895;SDS011;4484;48.928;10.066;2022-12-13T11:49:08;24.47;;;11.57;;
8895;SDS011;4484;48.928;10.066;2022-12-13T11:51:46;17.57;;;8.83;;
8895;SDS011;4484;48.928;10.066;2022-12-13T11:54:27;17.23;;;8.37;;
8895;SDS011;4484;48.928;10.066;2022-12-13T11:57:26;17.47;;;8.57;;
8895;SDS011;4484;48.928;10.066;2022-12-13T12:00:06;16.57;;;9.37;;
8895;SDS011;4484;48.928;10.066;2022-12-13T12:05:40;15.77;;;8.67;;
8895;SDS011;4484;48.928;10.066;2022-12-13T12:17:04;15.53;;;8.87;;
8895;SDS011;4484;48.928;10.066;2022-12-13T12:19:35;14.33;;;8.33;;
8895;SDS011;4484;48.928;10.066;2022-12-13T12:42:09;14.90;;;9.23;;
8895;SDS011;4484;48.928;10.066;2022-12-13T12:45:02;17.63;;;9.30;;
8895;SDS011;4484;48.928;10.066;2022-12-13T12:51:18;13.73;;;8.30;;
8895;SDS011;4484;48.928;10.066;2022-12-13T12:53:57;16.83;;;9.10;;
8895;SDS011;4484;48.928;10.066;2022-12-13T12:59:57;16.77;;;9.33;;
8895;SDS011;4484;48.928;10.066;2022-12-13T13:06:16;16.60;;;9.27;;
8895;SDS011;4484;48.928;10.066;2022-12-13T13:08:55;17.07;;;9.03;;
8895;SDS011;4484;48.928;10.066;2022-12-13T13:11:29;24.20;;;10.03;;
8895;SDS011;4484;48.928;10.066;2022-12-13T13:16:59;15.40;;;9.03;;
8895;SDS011;4484;48.928;10.066;2022-12-13T13:19:52;16.27;;;9.40;;
8895;SDS011;4484;48.928;10.066;2022-12-13T13:22:42;14.53;;;9.00;;
8895;SDS011;4484;48.928;10.066;2022-12-13T13:25:30;15.47;;;9.30;;
8895;SDS011;4484;48.928;10.066;2022-12-13T13:28:16;16.90;;;9.40;;
8895;SDS011;4484;48.928;10.066;2022-12-13T13:30:59;19.10;;;9.33;;
8895;SDS011;4484;48.928;10.066;2022-12-13T13:33:46;18.03;;;10.23;;
8895;SDS011;4484;48.928;10.066;2022-12-13T13:39:07;20.37;;;9.77;;
8895;SDS011;4484;48.928;10.066;2022-12-13T14:23:17;14.73;;;8.47;;
8895;SDS011;4484;48.928;10.066;2022-12-13T14:30:58;17.00;;;9.40;;
8895;SDS011;4484;48.928;10.066;2022-12-13T14:33:25;18.10;;;9.20;;
8895;SDS011;4484;48.928;10.066;2022-12-13T14:35:57;14.40;;;8.63;;
8895;SDS011;4484;48.928;10.066;2022-12-13T14:38:29;16.47;;;9.30;;
8895;SDS011;4484;48.928;10.066;2022-12-13T14:40:58;21.60;;;10.47;;
8895;SDS011;4484;48.928;10.066;2022-12-13T14:43:30;18.67;;;9.63;;
8895;SDS011;4484;48.928;10.066;2022-12-13T14:46:00;17.40;;;9.73;;
8895;SDS011;4484;48.928;10.066;2022-12-13T14:48:34;19.30;;;9.63;;
8895;SDS011;4484;48.928;10.066;2022-12-13T14:51:22;17.90;;;9.07;;
8895;SDS011;4484;48.928;10.066;2022-12-13T14:53:56;14.20;;;8.17;;
8895;SDS011;4484;48.928;10.066;2022-12-13T14:56:25;19.07;;;8.60;;
8895;SDS011;4484;48.928;10.066;2022-12-13T15:06:52;18.20;;;9.33;;
8895;SDS011;4484;48.928;10.066;2022-12-13T15:09:26;15.17;;;8.97;;
8895;SDS011;4484;48.928;10.066;2022-12-13T15:11:55;16.73;;;8.80;;
8895;SDS011;4484;48.928;10.066;2022-12-13T15:14:49;14.07;;;7.90;;
8895;SDS011;4484;48.928;10.066;2022-12-13T15:17:35;13.83;;;8.17;;
8895;SDS011;4484;48.928;10.066;2022-12-13T15:20:29;16.50;;;9.13;;
8895;SDS011;4484;48.928;10.066;2022-12-13T15:23:04;17.70;;;8.40;;
8895;SDS011;4484;48.928;10.066;2022-12-13T15:26:02;10.80;;;6.87;;
8895;SDS011;4484;48.928;10.066;2022-12-13T15:28:33;13.90;;;8.03;;
8895;SDS011;4484;48.928;10.066;2022-12-13T15:31:03;13.33;;;7.90;;
8895;SDS011;4484;48.928;10.066;2022-12-13T15:33:31;14.07;;;8.07;;
8895;SDS011;4484;48.928;10.066;2022-12-13T15:41:20;14.77;;;8.67;;
8895;SDS011;4484;48.928;10.066;2022-12-13T15:43:52;20.00;;;10.07;;
8895;SDS011;4484;48.928;10.066;2022-12-13T15:46:25;20.30;;;11.40;;
8895;SDS011;4484;48.928;10.066;2022-12-13T15:48:56;25.73;;;12.60;;
8895;SDS011;4484;48.928;10.066;2022-12-13T15:51:26;20.57;;;10.23;;
8895;SDS011;4484;48.928;10.066;2022-12-13T15:56:37;17.87;;;9.27;;
8895;SDS011;4484;48.928;10.066;2022-12-13T15:59:23;16.50;;;9.13;;
8895;SDS011;4484;48.928;10.066;2022-12-13T16:01:52;17.63;;;8.87;;
8895;SDS011;4484;48.928;10.066;2022-12-13T16:04:25;21.07;;;10.80;;
8895;SDS011;4484;48.928;10.066;2022-12-13T16:06:55;24.07;;;11.63;;
8895;SDS011;4484;48.928;10.066;2022-12-13T16:09:27;17.33;;;8.87;;
8895;SDS011;4484;48.928;10.066;2022-12-13T16:12:01;18.57;;;9.70;;
8895;SDS011;4484;48.928;10.066;2022-12-13T16:14:36;13.03;;;7.83;;
8895;SDS011;4484;48.928;10.066;2022-12-13T16:17:20;14.23;;;7.83;;
8895;SDS011;4484;48.928;10.066;2022-12-13T16:19:53;14.20;;;7.67;;
8895;SDS011;4484;48.928;10.066;2022-12-13T16:22:27;14.23;;;7.83;;
8895;SDS011;4484;48.928;10.066;2022-12-13T16:24:54;13.90;;;7.83;;
8895;SDS011;4484;48.928;10.066;2022-12-13T16:27:21;11.20;;;6.73;;
8895;SDS011;4484;48.928;10.066;2022-12-13T16:29:48;13.17;;;7.67;;
8895;SDS011;4484;48.928;10.066;2022-12-13T16:32:15;13.27;;;7.67;;
8895;SDS011;4484;48.928;10.066;2022-12-13T16:34:42;13.33;;;7.67;;
8895;SDS011;4484;48.928;10.066;2022-12-13T16:37:10;13.17;;;7.37;;
8895;SDS011;4484;48.928;10.066;2022-12-13T16:39:53;13.33;;;7.57;;
8895;SDS011;4484;48.928;10.066;2022-12-13T16:42:20;14.20;;;8.30;;
8895;SDS011;4484;48.928;10.066;2022-12-13T16:44:52;15.50;;;9.33;;
8895;SDS011;4484;48.928;10.066;2022-12-13T16:47:41;19.70;;;9.87;;
8895;SDS011;4484;48.928;10.066;2022-12-13T16:50:15;18.40;;;9.00;;
8895;SDS011;4484;48.928;10.066;2022-12-13T16:52:44;14.73;;;8.07;;
8895;SDS011;4484;48.928;10.066;2022-12-13T16:55:11;13.37;;;7.43;;
8895;SDS011;4484;48.928;10.066;2022-12-13T16:57:38;14.17;;;8.00;;
8895;SDS011;4484;48.928;10.066;2022-12-13T17:00:06;16.20;;;8.90;;
8895;SDS011;4484;48.928;10.066;2022-12-13T17:02:36;13.20;;;7.97;;
8895;SDS011;4484;48.928;10.066;2022-12-13T17:05:03;13.80;;;7.50;;
8895;SDS011;4484;48.928;10.066;2022-12-13T17:07:31;14.03;;;7.73;;
8895;SDS011;4484;48.928;10.066;2022-12-13T17:10:00;13.37;;;8.17;;
8895;SDS011;4484;48.928;10.066;2022-12-13T17:12:27;11.43;;;7.57;;
8895;SDS011;4484;48.928;10.066;2022-12-13T17:14:54;16.67;;;8.70;;
8895;SDS011;4484;48.928;10.066;2022-12-13T17:17:24;12.93;;;7.53;;
8895;SDS011;4484;48.928;10.066;2022-12-13T17:19:50;14.63;;;8.27;;
8895;SDS011;4484;48.928;10.066;2022-12-13T17:22:17;14.50;;;7.73;;
8895;SDS011;4484;48.928;10.066;2022-12-13T17:24:44;11.93;;;6.80;;
8895;SDS011;4484;48.928;10.066;2022-12-13T17:27:11;13.27;;;8.03;;
8895;SDS011;4484;48.928;10.066;2022-12-13T17:29:39;11.00;;;6.87;;
8895;SDS011;4484;48.928;10.066;2022-12-13T17:32:06;10.73;;;6.80;;
8895;SDS011;4484;48.928;10.066;2022-12-13T17:34:33;17.43;;;6.73;;
8895;SDS011;4484;48.928;10.066;2022-12-13T17:37:00;26.47;;;13.67;;
8895;SDS011;4484;48.928;10.066;2022-12-13T17:39:35;16.20;;;8.70;;
8895;SDS011;4484;48.928;10.066;2022-12-13T17:42:02;10.47;;;6.70;;
8895;SDS011;4484;48.928;10.066;2022-12-13T17:44:29;12.17;;;7.00;;